sensor_id;sensor_type;location;lat;lon;timestamp;pressure;altitude;pressure_sealevel;temperature;humidity
54144;BME280;40050;47.324;18.792;2022-12-20T00:01:39;1022.04;;;0.10;76.38
54144;BME280;40050;47.324;18.792;2022-12-20T00:03:41;1022.00;;;0.06;76.51
54144;BME280;40050;47.324;18.792;2022-12-20T00:05:44;1021.77;;;-0.08;76.49
54144;BME280;40050;47.324;18.792;2022-12-20T00:07:46;1022.11;;;0.09;76.58
54144;BME280;40050;47.324;18.792;2022-12-20T00:09:48;1022.11;;;0.11;76.58
54144;BME280;40050;47.324;18.792;2022-12-20T00:11:51;1022.11;;;0.16;76.47
54144;BME280;40050;47.324;18.792;2022-12-20T00:13:53;1022.06;;;0.17;76.31
54144;BME280;40050;47.324;18.792;2022-12-20T00:16:02;1022.05;;;0.13;76.41
54144;BME280;40050;47.324;18.792;2022-12-20T00:18:05;1022.10;;;0.17;76.37
54144;BME280;40050;47.324;18.792;2022-12-20T00:20:07;1022.08;;;0.16;76.48
54144;BME280;40050;47.324;18.792;2022-12-20T00:22:10;1022.16;;;0.22;76.47
54144;BME280;40050;47.324;18.792;2022-12-20T00:24:12;1022.22;;;0.24;76.46
54144;BME280;40050;47.324;18.792;2022-12-20T00:26:16;1022.22;;;0.26;76.41
54144;BME280;40050;47.324;18.792;2022-12-20T00:28:18;1022.12;;;0.28;76.31
54144;BME280;40050;47.324;18.792;2022-12-20T00:30:21;1022.03;;;0.31;76.24
54144;BME280;40050;47.324;18.792;2022-12-20T00:32:23;1021.83;;;0.26;76.26
54144;BME280;40050;47.324;18.792;2022-12-20T00:34:25;1021.80;;;0.24;76.28
54144;BME280;40050;47.324;18.792;2022-12-20T00:36:29;1021.91;;;0.29;76.33
54144;BME280;40050;47.324;18.792;2022-12-20T00:38:31;1021.86;;;0.28;76.16
54144;BME280;40050;47.324;18.792;2022-12-20T00:40:34;1021.88;;;0.27;76.24
54144;BME280;40050;47.324;18.792;2022-12-20T00:42:36;1021.88;;;0.27;76.26
54144;BME280;40050;47.324;18.792;2022-12-20T00:44:39;1021.92;;;0.26;76.26
54144;BME280;40050;47.324;18.792;2022-12-20T00:46:41;1021.81;;;0.18;76.18
54144;BME280;40050;47.324;18.792;2022-12-20T00:48:44;1021.89;;;0.28;76.24
54144;BME280;40050;47.324;18.792;2022-12-20T00:50:46;1021.79;;;0.29;76.17
54144;BME280;40050;47.324;18.792;2022-12-20T00:52:48;1021.68;;;0.32;75.97
54144;BME280;40050;47.324;18.792;2022-12-20T00:54:51;1021.68;;;0.35;75.92
54144;BME280;40050;47.324;18.792;2022-12-20T00:56:53;1021.60;;;0.28;75.89
54144;BME280;40050;47.324;18.792;2022-12-20T00:58:56;1021.55;;;0.25;75.92
54144;BME280;40050;47.324;18.792;2022-12-20T01:00:59;1021.51;;;0.19;76.03
54144;BME280;40050;47.324;18.792;2022-12-20T01:03:02;1021.52;;;0.21;76.06
54144;BME280;40050;47.324;18.792;2022-12-20T01:05:04;1021.55;;;0.16;76.10
54144;BME280;40050;47.324;18.792;2022-12-20T01:07:07;1021.49;;;0.16;76.21
54144;BME280;40050;47.324;18.792;2022-12-20T01:09:09;1021.55;;;0.14;76.21
54144;BME280;40050;47.324;18.792;2022-12-20T01:11:13;1021.68;;;0.16;76.11
54144;BME280;40050;47.324;18.792;2022-12-20T01:13:16;1021.72;;;0.11;76.19
54144;BME280;40050;47.324;18.792;2022-12-20T01:15:18;1021.67;;;0.14;76.20
54144;BME280;40050;47.324;18.792;2022-12-20T01:17:21;1021.61;;;0.11;76.36
54144;BME280;40050;47.324;18.792;2022-12-20T01:19:23;1021.60;;;0.05;76.55
54144;BME280;40050;47.324;18.792;2022-12-20T01:21:26;1021.61;;;0.10;76.51
54144;BME280;40050;47.324;18.792;2022-12-20T01:23:29;1021.69;;;0.15;76.48
54144;BME280;40050;47.324;18.792;2022-12-20T01:25:31;1021.63;;;0.14;76.47
54144;BME280;40050;47.324;18.792;2022-12-20T01:27:34;1021.67;;;0.22;76.36
54144;BME280;40050;47.324;18.792;2022-12-20T01:29:36;1021.63;;;0.19;76.31
54144;BME280;40050;47.324;18.792;2022-12-20T01:31:38;1021.55;;;0.13;76.46
54144;BME280;40050;47.324;18.792;2022-12-20T01:33:41;1021.55;;;0.21;76.43
54144;BME280;40050;47.324;18.792;2022-12-20T01:35:56;1021.41;;;0.16;76.30
54144;BME280;40050;47.324;18.792;2022-12-20T01:37:59;1021.34;;;0.19;76.37
54144;BME280;40050;47.324;18.792;2022-12-20T01:40:01;1021.15;;;0.14;76.33
54144;BME280;40050;47.324;18.792;2022-12-20T01:42:04;1021.11;;;0.22;76.18
54144;BME280;40050;47.324;18.792;2022-12-20T01:46:32;1021.02;;;0.13;76.45
54144;BME280;40050;47.324;18.792;2022-12-20T01:48:35;1020.95;;;0.16;76.40
54144;BME280;40050;47.324;18.792;2022-12-20T01:50:37;1021.07;;;0.22;76.30
54144;BME280;40050;47.324;18.792;2022-12-20T01:52:41;1021.14;;;0.19;76.37
54144;BME280;40050;47.324;18.792;2022-12-20T01:57:03;1020.97;;;0.20;76.45
54144;BME280;40050;47.324;18.792;2022-12-20T01:59:05;1021.01;;;0.19;76.49
54144;BME280;40050;47.324;18.792;2022-12-20T02:01:09;1020.98;;;0.20;76.52
54144;BME280;40050;47.324;18.792;2022-12-20T02:03:11;1020.88;;;0.14;76.48
54144;BME280;40050;47.324;18.792;2022-12-20T02:05:16;1020.89;;;0.25;76.39
54144;BME280;40050;47.324;18.792;2022-12-20T02:07:23;1020.95;;;0.24;76.41
54144;BME280;40050;47.324;18.792;2022-12-20T02:09:27;1020.92;;;0.22;76.49
54144;BME280;40050;47.324;18.792;2022-12-20T02:11:36;1020.91;;;0.23;76.62
54144;BME280;40050;47.324;18.792;2022-12-20T02:16:01;1020.51;;;0.18;76.25
54144;BME280;40050;47.324;18.792;2022-12-20T02:18:07;1020.61;;;0.24;76.18
54144;BME280;40050;47.324;18.792;2022-12-20T02:27:23;1020.70;;;0.27;76.06
54144;BME280;40050;47.324;18.792;2022-12-20T02:31:57;1020.72;;;0.26;76.06
54144;BME280;40050;47.324;18.792;2022-12-20T02:34:02;1020.66;;;0.24;75.96
54144;BME280;40050;47.324;18.792;2022-12-20T02:36:05;1020.70;;;0.22;76.11
54144;BME280;40050;47.324;18.792;2022-12-20T02:38:30;1020.63;;;0.23;76.14
54144;BME280;40050;47.324;18.792;2022-12-20T02:40:34;1020.55;;;0.22;76.06
54144;BME280;40050;47.324;18.792;2022-12-20T02:42:37;1020.53;;;0.23;76.04
54144;BME280;40050;47.324;18.792;2022-12-20T02:44:44;1020.55;;;0.21;76.08
54144;BME280;40050;47.324;18.792;2022-12-20T02:46:48;1020.53;;;0.22;75.94
54144;BME280;40050;47.324;18.792;2022-12-20T02:48:51;1020.57;;;0.20;75.95
54144;BME280;40050;47.324;18.792;2022-12-20T02:50:55;1020.62;;;0.16;76.15
54144;BME280;40050;47.324;18.792;2022-12-20T02:52:58;1020.57;;;0.18;76.16
54144;BME280;40050;47.324;18.792;2022-12-20T02:55:01;1020.54;;;0.20;75.98
54144;BME280;40050;47.324;18.792;2022-12-20T02:57:05;1020.52;;;0.17;76.00
54144;BME280;40050;47.324;18.792;2022-12-20T02:59:12;1020.58;;;0.20;75.96
54144;BME280;40050;47.324;18.792;2022-12-20T03:03:39;1020.45;;;0.20;75.95
54144;BME280;40050;47.324;18.792;2022-12-20T03:05:45;1020.38;;;0.14;76.04
54144;BME280;40050;47.324;18.792;2022-12-20T03:07:48;1020.46;;;0.19;75.95
54144;BME280;40050;47.324;18.792;2022-12-20T03:09:50;1020.38;;;0.15;75.86
54144;BME280;40050;47.324;18.792;2022-12-20T03:11:53;1020.44;;;0.17;76.08
54144;BME280;40050;47.324;18.792;2022-12-20T03:13:55;1020.43;;;0.18;76.14
54144;BME280;40050;47.324;18.792;2022-12-20T03:15:58;1020.19;;;0.05;76.04
54144;BME280;40050;47.324;18.792;2022-12-20T03:18:00;1020.37;;;0.17;75.94
54144;BME280;40050;47.324;18.792;2022-12-20T03:20:04;1020.42;;;0.14;76.05
54144;BME280;40050;47.324;18.792;2022-12-20T03:22:06;1020.39;;;0.16;75.94
54144;BME280;40050;47.324;18.792;2022-12-20T03:24:09;1020.34;;;0.13;75.95
54144;BME280;40050;47.324;18.792;2022-12-20T03:26:11;1020.33;;;0.13;75.83
54144;BME280;40050;47.324;18.792;2022-12-20T03:28:14;1020.27;;;0.13;75.77
54144;BME280;40050;47.324;18.792;2022-12-20T03:30:16;1020.35;;;0.14;75.72
54144;BME280;40050;47.324;18.792;2022-12-20T03:32:19;1020.26;;;0.04;75.74
54144;BME280;40050;47.324;18.792;2022-12-20T03:34:21;1020.31;;;0.00;75.91
54144;BME280;40050;47.324;18.792;2022-12-20T03:36:24;1020.34;;;-0.02;76.04
54144;BME280;40050;47.324;18.792;2022-12-20T03:38:26;1020.38;;;0.02;76.13
54144;BME280;40050;47.324;18.792;2022-12-20T03:40:28;1020.43;;;0.02;76.13
54144;BME280;40050;47.324;18.792;2022-12-20T03:42:31;1020.37;;;0.04;76.05
54144;BME280;40050;47.324;18.792;2022-12-20T03:44:33;1020.33;;;0.02;76.01
54144;BME280;40050;47.324;18.792;2022-12-20T03:46:36;1020.34;;;0.03;75.94
54144;BME280;40050;47.324;18.792;2022-12-20T03:48:38;1020.42;;;-0.02;76.04
54144;BME280;40050;47.324;18.792;2022-12-20T03:50:41;1020.27;;;-0.11;76.11
54144;BME280;40050;47.324;18.792;2022-12-20T03:52:43;1020.40;;;-0.02;76.16
54144;BME280;40050;47.324;18.792;2022-12-20T03:54:46;1020.39;;;0.00;76.10
54144;BME280;40050;47.324;18.792;2022-12-20T03:56:48;1020.45;;;0.05;76.04
54144;BME280;40050;47.324;18.792;2022-12-20T03:58:50;1020.35;;;0.06;75.94
54144;BME280;40050;47.324;18.792;2022-12-20T04:00:53;1020.30;;;0.07;75.87
54144;BME280;40050;47.324;18.792;2022-12-20T04:02:57;1020.26;;;0.07;75.72
54144;BME280;40050;47.324;18.792;2022-12-20T04:04:59;1020.13;;;0.05;75.65
54144;BME280;40050;47.324;18.792;2022-12-20T04:07:02;1020.09;;;0.09;75.35
54144;BME280;40050;47.324;18.792;2022-12-20T04:09:04;1020.06;;;0.04;75.29
54144;BME280;40050;47.324;18.792;2022-12-20T04:11:06;1020.13;;;-0.01;75.37
54144;BME280;40050;47.324;18.792;2022-12-20T04:13:09;1020.13;;;-0.04;75.51
54144;BME280;40050;47.324;18.792;2022-12-20T04:15:11;1020.11;;;-0.06;75.52
54144;BME280;40050;47.324;18.792;2022-12-20T04:17:13;1020.01;;;-0.11;75.47
54144;BME280;40050;47.324;18.792;2022-12-20T04:19:16;1020.03;;;-0.14;75.52
54144;BME280;40050;47.324;18.792;2022-12-20T04:21:25;1020.04;;;-0.15;75.53
54144;BME280;40050;47.324;18.792;2022-12-20T04:23:27;1020.02;;;-0.15;75.50
54144;BME280;40050;47.324;18.792;2022-12-20T04:25:29;1019.93;;;-0.20;75.54
54144;BME280;40050;47.324;18.792;2022-12-20T04:27:32;1019.89;;;-0.24;75.69
54144;BME280;40050;47.324;18.792;2022-12-20T04:29:34;1019.78;;;-0.26;75.87
54144;BME280;40050;47.324;18.792;2022-12-20T04:31:36;1019.66;;;-0.30;76.09
54144;BME280;40050;47.324;18.792;2022-12-20T04:33:39;1019.64;;;-0.38;76.40
54144;BME280;40050;47.324;18.792;2022-12-20T04:35:41;1019.58;;;-0.30;76.31
54144;BME280;40050;47.324;18.792;2022-12-20T04:37:43;1019.50;;;-0.34;76.33
54144;BME280;40050;47.324;18.792;2022-12-20T04:39:46;1019.64;;;-0.32;76.47
54144;BME280;40050;47.324;18.792;2022-12-20T04:41:48;1019.64;;;-0.29;76.52
54144;BME280;40050;47.324;18.792;2022-12-20T04:43:51;1019.69;;;-0.30;76.68
54144;BME280;40050;47.324;18.792;2022-12-20T04:45:54;1019.71;;;-0.29;76.89
54144;BME280;40050;47.324;18.792;2022-12-20T04:47:56;1019.74;;;-0.31;77.01
54144;BME280;40050;47.324;18.792;2022-12-20T04:49:59;1019.73;;;-0.29;77.08
54144;BME280;40050;47.324;18.792;2022-12-20T04:52:01;1019.82;;;-0.20;76.97
54144;BME280;40050;47.324;18.792;2022-12-20T04:54:04;1019.88;;;-0.19;76.99
54144;BME280;40050;47.324;18.792;2022-12-20T04:56:06;1019.92;;;-0.18;77.18
54144;BME280;40050;47.324;18.792;2022-12-20T04:58:09;1019.87;;;-0.14;77.26
54144;BME280;40050;47.324;18.792;2022-12-20T05:00:11;1019.87;;;-0.10;77.17
54144;BME280;40050;47.324;18.792;2022-12-20T05:02:14;1019.89;;;-0.09;77.16
54144;BME280;40050;47.324;18.792;2022-12-20T05:04:16;1019.95;;;-0.06;77.15
54144;BME280;40050;47.324;18.792;2022-12-20T05:06:19;1019.95;;;0.01;77.05
54144;BME280;40050;47.324;18.792;2022-12-20T05:08:22;1019.91;;;-0.04;77.02
54144;BME280;40050;47.324;18.792;2022-12-20T05:10:24;1020.05;;;0.02;77.05
54144;BME280;40050;47.324;18.792;2022-12-20T05:12:27;1020.04;;;0.01;77.00
54144;BME280;40050;47.324;18.792;2022-12-20T05:14:29;1019.99;;;0.04;76.80
54144;BME280;40050;47.324;18.792;2022-12-20T05:16:31;1020.01;;;0.00;76.75
54144;BME280;40050;47.324;18.792;2022-12-20T05:18:34;1020.11;;;0.09;76.75
54144;BME280;40050;47.324;18.792;2022-12-20T05:20:36;1020.12;;;0.11;76.72
54144;BME280;40050;47.324;18.792;2022-12-20T05:22:38;1020.07;;;0.09;76.57
54144;BME280;40050;47.324;18.792;2022-12-20T05:24:41;1020.18;;;0.14;76.55
54144;BME280;40050;47.324;18.792;2022-12-20T05:26:43;1020.24;;;0.14;76.48
54144;BME280;40050;47.324;18.792;2022-12-20T05:28:45;1020.17;;;0.14;76.28
54144;BME280;40050;47.324;18.792;2022-12-20T05:30:48;1020.10;;;0.15;76.13
54144;BME280;40050;47.324;18.792;2022-12-20T05:32:50;1019.98;;;0.08;76.15
54144;BME280;40050;47.324;18.792;2022-12-20T05:34:52;1020.02;;;0.09;76.13
54144;BME280;40050;47.324;18.792;2022-12-20T05:36:55;1020.07;;;0.05;76.18
54144;BME280;40050;47.324;18.792;2022-12-20T05:38:57;1020.07;;;0.04;76.29
54144;BME280;40050;47.324;18.792;2022-12-20T05:40:59;1020.04;;;0.05;76.31
54144;BME280;40050;47.324;18.792;2022-12-20T05:43:02;1019.96;;;0.06;76.17
54144;BME280;40050;47.324;18.792;2022-12-20T05:45:04;1019.82;;;-0.05;76.15
54144;BME280;40050;47.324;18.792;2022-12-20T05:47:07;1020.00;;;0.00;76.18
54144;BME280;40050;47.324;18.792;2022-12-20T05:49:09;1019.96;;;-0.01;76.16
54144;BME280;40050;47.324;18.792;2022-12-20T05:51:12;1019.99;;;0.00;76.21
54144;BME280;40050;47.324;18.792;2022-12-20T05:53:15;1019.90;;;-0.03;76.26
54144;BME280;40050;47.324;18.792;2022-12-20T05:55:17;1019.95;;;-0.03;76.28
54144;BME280;40050;47.324;18.792;2022-12-20T05:57:20;1019.94;;;-0.07;76.32
54144;BME280;40050;47.324;18.792;2022-12-20T05:59:22;1019.89;;;-0.12;76.28
54144;BME280;40050;47.324;18.792;2022-12-20T06:01:24;1019.92;;;-0.08;76.22
54144;BME280;40050;47.324;18.792;2022-12-20T06:03:27;1019.86;;;-0.09;76.23
54144;BME280;40050;47.324;18.792;2022-12-20T06:05:29;1019.87;;;-0.09;76.30
54144;BME280;40050;47.324;18.792;2022-12-20T06:07:31;1019.82;;;-0.11;76.27
54144;BME280;40050;47.324;18.792;2022-12-20T06:09:34;1019.72;;;-0.14;76.29
54144;BME280;40050;47.324;18.792;2022-12-20T06:11:36;1019.68;;;-0.21;76.34
54144;BME280;40050;47.324;18.792;2022-12-20T06:13:39;1019.68;;;-0.19;76.42
54144;BME280;40050;47.324;18.792;2022-12-20T06:15:41;1019.67;;;-0.18;76.44
54144;BME280;40050;47.324;18.792;2022-12-20T06:17:43;1019.63;;;-0.18;76.41
54144;BME280;40050;47.324;18.792;2022-12-20T06:19:46;1019.75;;;-0.11;76.27
54144;BME280;40050;47.324;18.792;2022-12-20T06:21:48;1019.71;;;-0.15;76.35
54144;BME280;40050;47.324;18.792;2022-12-20T06:23:51;1019.68;;;-0.20;76.43
54144;BME280;40050;47.324;18.792;2022-12-20T06:25:53;1019.65;;;-0.16;76.43
54144;BME280;40050;47.324;18.792;2022-12-20T06:27:55;1019.30;;;-0.36;76.45
54144;BME280;40050;47.324;18.792;2022-12-20T06:29:58;1019.59;;;-0.17;76.48
54144;BME280;40050;47.324;18.792;2022-12-20T06:32:00;1019.65;;;-0.14;76.44
54144;BME280;40050;47.324;18.792;2022-12-20T06:34:03;1019.68;;;-0.14;76.48
54144;BME280;40050;47.324;18.792;2022-12-20T06:36:05;1019.52;;;-0.27;76.50
54144;BME280;40050;47.324;18.792;2022-12-20T06:38:08;1019.70;;;-0.12;76.44
54144;BME280;40050;47.324;18.792;2022-12-20T06:40:10;1019.66;;;-0.14;76.45
54144;BME280;40050;47.324;18.792;2022-12-20T06:42:13;1019.71;;;-0.09;76.29
54144;BME280;40050;47.324;18.792;2022-12-20T06:44:15;1019.68;;;-0.14;76.28
54144;BME280;40050;47.324;18.792;2022-12-20T06:46:18;1019.64;;;-0.13;76.21
54144;BME280;40050;47.324;18.792;2022-12-20T06:48:20;1019.59;;;-0.20;76.31
54144;BME280;40050;47.324;18.792;2022-12-20T06:50:23;1019.66;;;-0.13;76.25
54144;BME280;40050;47.324;18.792;2022-12-20T06:52:25;1019.68;;;-0.14;76.30
54144;BME280;40050;47.324;18.792;2022-12-20T06:54:27;1019.63;;;-0.14;76.29
54144;BME280;40050;47.324;18.792;2022-12-20T06:56:30;1019.65;;;-0.10;76.25
54144;BME280;40050;47.324;18.792;2022-12-20T06:58:32;1019.63;;;-0.12;76.28
54144;BME280;40050;47.324;18.792;2022-12-20T07:00:35;1019.61;;;-0.14;76.38
54144;BME280;40050;47.324;18.792;2022-12-20T07:02:37;1019.53;;;-0.13;76.28
54144;BME280;40050;47.324;18.792;2022-12-20T07:04:40;1019.56;;;-0.10;76.29
54144;BME280;40050;47.324;18.792;2022-12-20T07:06:42;1019.52;;;-0.10;76.34
54144;BME280;40050;47.324;18.792;2022-12-20T07:08:44;1019.41;;;-0.07;76.26
54144;BME280;40050;47.324;18.792;2022-12-20T07:10:47;1019.43;;;-0.05;76.21
54144;BME280;40050;47.324;18.792;2022-12-20T07:12:50;1019.39;;;-0.08;76.24
54144;BME280;40050;47.324;18.792;2022-12-20T07:14:53;1019.55;;;-0.04;76.29
54144;BME280;40050;47.324;18.792;2022-12-20T07:16:55;1019.42;;;-0.09;76.30
54144;BME280;40050;47.324;18.792;2022-12-20T07:18:57;1019.50;;;0.01;76.37
54144;BME280;40050;47.324;18.792;2022-12-20T07:21:00;1019.51;;;-0.02;76.45
54144;BME280;40050;47.324;18.792;2022-12-20T07:23:03;1019.52;;;-0.02;76.49
54144;BME280;40050;47.324;18.792;2022-12-20T07:25:05;1019.47;;;-0.04;76.60
54144;BME280;40050;47.324;18.792;2022-12-20T07:27:09;1019.52;;;-0.02;76.68
54144;BME280;40050;47.324;18.792;2022-12-20T07:29:11;1019.63;;;0.08;76.64
54144;BME280;40050;47.324;18.792;2022-12-20T07:31:14;1019.57;;;0.05;76.57
54144;BME280;40050;47.324;18.792;2022-12-20T07:33:17;1019.48;;;0.03;76.59
54144;BME280;40050;47.324;18.792;2022-12-20T07:35:19;1019.65;;;0.20;76.48
54144;BME280;40050;47.324;18.792;2022-12-20T07:37:21;1019.60;;;0.19;76.43
54144;BME280;40050;47.324;18.792;2022-12-20T07:39:24;1019.51;;;0.19;76.40
54144;BME280;40050;47.324;18.792;2022-12-20T07:41:26;1019.60;;;0.26;76.35
54144;BME280;40050;47.324;18.792;2022-12-20T07:43:29;1019.55;;;0.26;76.39
54144;BME280;40050;47.324;18.792;2022-12-20T07:45:31;1019.51;;;0.34;76.36
54144;BME280;40050;47.324;18.792;2022-12-20T07:47:33;1019.40;;;0.41;76.25
54144;BME280;40050;47.324;18.792;2022-12-20T07:49:36;1019.23;;;0.43;76.09
54144;BME280;40050;47.324;18.792;2022-12-20T07:51:42;1019.31;;;0.45;76.07
54144;BME280;40050;47.324;18.792;2022-12-20T07:53:47;1019.16;;;0.50;75.97
54144;BME280;40050;47.324;18.792;2022-12-20T07:55:51;1019.21;;;0.53;75.93
54144;BME280;40050;47.324;18.792;2022-12-20T07:57:55;1019.18;;;0.57;75.93
54144;BME280;40050;47.324;18.792;2022-12-20T07:59:58;1019.07;;;0.62;75.84
54144;BME280;40050;47.324;18.792;2022-12-20T08:02:01;1019.10;;;0.67;75.58
54144;BME280;40050;47.324;18.792;2022-12-20T08:04:06;1019.05;;;0.73;75.62
54144;BME280;40050;47.324;18.792;2022-12-20T08:06:09;1019.06;;;0.69;75.33
54144;BME280;40050;47.324;18.792;2022-12-20T08:08:13;1019.09;;;0.69;75.17
54144;BME280;40050;47.324;18.792;2022-12-20T08:10:16;1019.16;;;0.82;75.01
54144;BME280;40050;47.324;18.792;2022-12-20T08:12:19;1019.09;;;0.92;75.30
54144;BME280;40050;47.324;18.792;2022-12-20T08:14:22;1019.09;;;1.10;75.17
54144;BME280;40050;47.324;18.792;2022-12-20T08:16:24;1018.93;;;1.19;75.09
54144;BME280;40050;47.324;18.792;2022-12-20T08:18:27;1019.04;;;1.36;74.65
54144;BME280;40050;47.324;18.792;2022-12-20T08:20:29;1019.04;;;1.49;74.38
54144;BME280;40050;47.324;18.792;2022-12-20T08:22:31;1019.10;;;1.57;73.67
54144;BME280;40050;47.324;18.792;2022-12-20T08:24:34;1019.11;;;1.52;72.58
54144;BME280;40050;47.324;18.792;2022-12-20T08:26:39;1019.11;;;1.49;73.18
54144;BME280;40050;47.324;18.792;2022-12-20T08:28:42;1019.06;;;1.57;72.68
54144;BME280;40050;47.324;18.792;2022-12-20T08:30:44;1019.02;;;1.71;72.67
54144;BME280;40050;47.324;18.792;2022-12-20T08:32:47;1019.03;;;1.80;71.69
54144;BME280;40050;47.324;18.792;2022-12-20T08:34:49;1018.98;;;1.80;71.48
54144;BME280;40050;47.324;18.792;2022-12-20T08:36:52;1018.95;;;2.00;71.72
54144;BME280;40050;47.324;18.792;2022-12-20T08:38:55;1018.93;;;2.08;71.12
54144;BME280;40050;47.324;18.792;2022-12-20T08:41:04;1018.94;;;2.10;70.46
54144;BME280;40050;47.324;18.792;2022-12-20T08:43:07;1018.92;;;2.15;70.23
54144;BME280;40050;47.324;18.792;2022-12-20T08:45:10;1018.82;;;2.11;70.19
54144;BME280;40050;47.324;18.792;2022-12-20T08:47:12;1018.81;;;2.13;69.84
54144;BME280;40050;47.324;18.792;2022-12-20T08:49:15;1018.80;;;2.11;69.89
54144;BME280;40050;47.324;18.792;2022-12-20T08:51:17;1018.80;;;2.23;70.12
54144;BME280;40050;47.324;18.792;2022-12-20T08:53:19;1018.79;;;2.28;68.87
54144;BME280;40050;47.324;18.792;2022-12-20T08:55:22;1018.83;;;2.39;69.50
54144;BME280;40050;47.324;18.792;2022-12-20T08:57:24;1018.75;;;2.57;69.66
54144;BME280;40050;47.324;18.792;2022-12-20T08:59:26;1018.87;;;2.67;69.05
54144;BME280;40050;47.324;18.792;2022-12-20T09:01:29;1018.85;;;2.73;68.16
54144;BME280;40050;47.324;18.792;2022-12-20T09:03:31;1018.86;;;2.67;67.82
54144;BME280;40050;47.324;18.792;2022-12-20T09:05:34;1018.90;;;2.80;68.67
54144;BME280;40050;47.324;18.792;2022-12-20T09:07:36;1018.89;;;2.84;67.78
54144;BME280;40050;47.324;18.792;2022-12-20T09:09:39;1018.91;;;2.84;67.17
54144;BME280;40050;47.324;18.792;2022-12-20T09:11:41;1018.90;;;2.77;66.69
54144;BME280;40050;47.324;18.792;2022-12-20T09:13:44;1018.90;;;2.69;66.83
54144;BME280;40050;47.324;18.792;2022-12-20T09:15:47;1018.98;;;2.52;67.10
54144;BME280;40050;47.324;18.792;2022-12-20T09:17:49;1018.98;;;2.56;67.46
54144;BME280;40050;47.324;18.792;2022-12-20T09:19:51;1019.01;;;2.53;67.39
54144;BME280;40050;47.324;18.792;2022-12-20T09:21:54;1019.06;;;2.55;67.23
54144;BME280;40050;47.324;18.792;2022-12-20T09:23:56;1018.98;;;2.64;67.42
54144;BME280;40050;47.324;18.792;2022-12-20T09:26:09;1018.91;;;2.65;66.47
54144;BME280;40050;47.324;18.792;2022-12-20T09:28:12;1018.80;;;2.76;67.01
54144;BME280;40050;47.324;18.792;2022-12-20T09:30:14;1018.64;;;2.77;66.67
54144;BME280;40050;47.324;18.792;2022-12-20T09:32:16;1018.66;;;2.80;66.04
54144;BME280;40050;47.324;18.792;2022-12-20T09:34:19;1018.59;;;2.86;66.67
54144;BME280;40050;47.324;18.792;2022-12-20T09:36:21;1018.54;;;2.84;66.17
54144;BME280;40050;47.324;18.792;2022-12-20T09:38:24;1018.52;;;2.63;66.38
54144;BME280;40050;47.324;18.792;2022-12-20T09:40:29;1018.46;;;2.74;66.57
54144;BME280;40050;47.324;18.792;2022-12-20T09:42:32;1018.41;;;2.70;66.73
54144;BME280;40050;47.324;18.792;2022-12-20T09:44:35;1018.37;;;2.90;66.33
54144;BME280;40050;47.324;18.792;2022-12-20T09:46:40;1018.40;;;2.87;66.00
54144;BME280;40050;47.324;18.792;2022-12-20T09:48:42;1018.35;;;2.81;66.14
54144;BME280;40050;47.324;18.792;2022-12-20T09:51:35;1018.29;;;2.78;66.16
54144;BME280;40050;47.324;18.792;2022-12-20T09:57:51;1018.35;;;3.13;65.72
54144;BME280;40050;47.324;18.792;2022-12-20T09:59:58;1018.40;;;3.14;65.51
54144;BME280;40050;47.324;18.792;2022-12-20T10:02:00;1018.40;;;3.14;66.02
54144;BME280;40050;47.324;18.792;2022-12-20T10:04:05;1018.35;;;3.43;65.83
54144;BME280;40050;47.324;18.792;2022-12-20T10:06:12;1018.42;;;3.65;65.55
54144;BME280;40050;47.324;18.792;2022-12-20T10:10:41;1018.30;;;3.73;64.17
54144;BME280;40050;47.324;18.792;2022-12-20T10:12:58;1018.18;;;3.70;64.53
54144;BME280;40050;47.324;18.792;2022-12-20T10:22:23;1018.19;;;3.55;64.27
54144;BME280;40050;47.324;18.792;2022-12-20T10:24:30;1018.20;;;3.71;64.25
54144;BME280;40050;47.324;18.792;2022-12-20T10:26:33;1018.11;;;3.78;64.08
54144;BME280;40050;47.324;18.792;2022-12-20T10:28:35;1018.08;;;3.58;63.84
54144;BME280;40050;47.324;18.792;2022-12-20T10:30:38;1018.11;;;3.72;64.10
54144;BME280;40050;47.324;18.792;2022-12-20T10:32:44;1018.04;;;3.59;64.05
54144;BME280;40050;47.324;18.792;2022-12-20T10:35:08;1018.02;;;3.58;64.33
54144;BME280;40050;47.324;18.792;2022-12-20T10:37:13;1017.87;;;3.47;64.56
54144;BME280;40050;47.324;18.792;2022-12-20T10:39:16;1017.80;;;3.48;64.47
54144;BME280;40050;47.324;18.792;2022-12-20T10:41:22;1017.84;;;3.41;64.87
54144;BME280;40050;47.324;18.792;2022-12-20T10:43:25;1017.78;;;3.41;64.77
54144;BME280;40050;47.324;18.792;2022-12-20T10:45:31;1017.75;;;3.64;64.79
54144;BME280;40050;47.324;18.792;2022-12-20T10:47:39;1017.74;;;3.77;64.62
54144;BME280;40050;47.324;18.792;2022-12-20T10:49:42;1017.62;;;3.62;64.11
54144;BME280;40050;47.324;18.792;2022-12-20T10:51:51;1017.63;;;3.87;64.28
54144;BME280;40050;47.324;18.792;2022-12-20T10:53:55;1017.58;;;3.97;63.90
54144;BME280;40050;47.324;18.792;2022-12-20T10:58:32;1017.38;;;3.80;63.65
54144;BME280;40050;47.324;18.792;2022-12-20T11:00:35;1017.47;;;4.02;64.06
54144;BME280;40050;47.324;18.792;2022-12-20T11:02:38;1017.46;;;4.16;63.85
54144;BME280;40050;47.324;18.792;2022-12-20T11:04:41;1017.40;;;4.26;63.28
54144;BME280;40050;47.324;18.792;2022-12-20T11:06:44;1017.37;;;4.32;62.76
54144;BME280;40050;47.324;18.792;2022-12-20T11:08:46;1017.31;;;4.41;62.95
54144;BME280;40050;47.324;18.792;2022-12-20T11:10:49;1017.20;;;4.46;62.80
54144;BME280;40050;47.324;18.792;2022-12-20T11:12:52;1017.17;;;4.51;62.87
54144;BME280;40050;47.324;18.792;2022-12-20T11:15:15;1017.14;;;4.53;62.05
54144;BME280;40050;47.324;18.792;2022-12-20T11:17:27;1017.11;;;4.42;62.65
54144;BME280;40050;47.324;18.792;2022-12-20T11:19:42;1017.02;;;4.48;62.85
54144;BME280;40050;47.324;18.792;2022-12-20T11:21:57;1017.00;;;4.25;62.51
54144;BME280;40050;47.324;18.792;2022-12-20T11:24:04;1016.93;;;3.99;63.24
54144;BME280;40050;47.324;18.792;2022-12-20T11:35:54;1017.01;;;4.22;63.32
54144;BME280;40050;47.324;18.792;2022-12-20T11:38:12;1017.04;;;4.04;63.23
54144;BME280;40050;47.324;18.792;2022-12-20T11:51:44;1016.80;;;4.02;62.98
54144;BME280;40050;47.324;18.792;2022-12-20T11:53:55;1016.82;;;4.05;63.01
54144;BME280;40050;47.324;18.792;2022-12-20T11:56:05;1016.85;;;3.80;63.77
54144;BME280;40050;47.324;18.792;2022-12-20T12:00:31;1016.87;;;3.65;63.94